createdAt,value
2023-05-23T00:02:15.785Z,11.07
2023-05-23T00:04:43.074Z,12.00
2023-05-23T00:07:10.193Z,12.30
2023-05-23T00:09:36.860Z,12.73
2023-05-23T00:12:05.670Z,12.32
2023-05-23T00:14:34.008Z,14.55
2023-05-23T00:17:05.382Z,14.23
2023-05-23T00:19:32.306Z,13.93
2023-05-23T00:21:59.542Z,12.07
2023-05-23T00:24:27.221Z,15.13
2023-05-23T00:26:54.848Z,12.98
2023-05-23T00:29:21.661Z,13.90
2023-05-23T00:31:48.825Z,13.95
2023-05-23T00:34:19.883Z,14.02
2023-05-23T00:36:48.070Z,14.23
2023-05-23T00:39:19.806Z,14.00
2023-05-23T00:41:53.121Z,13.85
2023-05-23T00:44:21.714Z,13.95
2023-05-23T00:46:51.694Z,12.27
2023-05-23T00:49:20.402Z,11.70
2023-05-23T00:51:55.985Z,13.75
2023-05-23T00:54:29.623Z,13.90
2023-05-23T00:56:56.433Z,12.82
2023-05-23T00:59:24.702Z,12.05
2023-05-23T01:01:53.674Z,13.20
2023-05-23T01:04:20.663Z,14.98
2023-05-23T01:06:49.129Z,14.25
2023-05-23T01:09:17.387Z,15.27
2023-05-23T01:11:53.468Z,13.60
2023-05-23T01:14:27.244Z,13.48
2023-05-23T01:16:58.509Z,13.60
2023-05-23T01:19:45.458Z,13.45
2023-05-23T01:22:19.057Z,13.90
2023-05-23T01:24:55.105Z,13.93
2023-05-23T01:27:57.313Z,14.23
2023-05-23T01:30:25.523Z,16.88
2023-05-23T01:32:56.368Z,13.40
2023-05-23T01:35:29.026Z,11.95
2023-05-23T01:37:56.135Z,11.15
2023-05-23T01:40:24.829Z,10.30
2023-05-23T01:42:53.324Z,10.85
2023-05-23T01:45:21.526Z,10.37
2023-05-23T01:47:50.497Z,10.45
2023-05-23T01:50:20.909Z,13.48
2023-05-23T01:52:48.178Z,12.63
2023-05-23T01:55:22.551Z,12.05
2023-05-23T01:57:55.482Z,11.70
2023-05-23T02:00:22.503Z,13.85
2023-05-23T02:02:49.461Z,13.05
2023-05-23T02:05:23.304Z,11.73
2023-05-23T02:07:50.051Z,13.98
2023-05-23T02:10:17.624Z,13.18
2023-05-23T02:12:44.325Z,15.05
2023-05-23T02:15:13.125Z,12.27
2023-05-23T02:17:41.517Z,11.55
2023-05-23T02:20:08.968Z,13.20
2023-05-23T02:22:36.190Z,12.57
2023-05-23T02:25:03.719Z,11.85
2023-05-23T02:27:31.527Z,12.32
2023-05-23T02:29:58.415Z,12.15
2023-05-23T02:32:25.234Z,11.60
2023-05-23T02:34:52.660Z,13.95
2023-05-23T02:37:29.832Z,13.48
2023-05-23T02:39:56.852Z,14.32
2023-05-23T02:42:23.567Z,12.25
2023-05-23T02:44:50.426Z,13.23
2023-05-23T02:47:18.015Z,12.82
2023-05-23T02:49:44.742Z,13.13
2023-05-23T02:52:13.822Z,13.60
2023-05-23T02:54:41.098Z,15.60
2023-05-23T02:57:07.841Z,20.80
2023-05-23T02:59:37.160Z,19.60
2023-05-23T03:02:03.971Z,21.35
2023-05-23T03:04:30.755Z,22.50
2023-05-23T03:06:59.648Z,21.40
2023-05-23T03:09:26.928Z,21.17
2023-05-23T03:11:53.661Z,20.95
2023-05-23T03:14:20.357Z,20.52
2023-05-23T03:16:49.300Z,22.73
2023-05-23T03:19:16.314Z,22.52
2023-05-23T03:21:44.287Z,25.15
2023-05-23T03:24:11.797Z,24.65
2023-05-23T03:26:38.477Z,23.25
2023-05-23T03:29:07.230Z,21.80
2023-05-23T03:31:34.063Z,20.88
2023-05-23T03:34:02.545Z,21.55
2023-05-23T03:36:29.647Z,22.27
2023-05-23T03:38:56.343Z,21.05
2023-05-23T03:41:23.207Z,24.50
2023-05-23T03:43:50.225Z,24.55
2023-05-23T03:46:17.027Z,28.17
2023-05-23T03:48:43.991Z,25.55
2023-05-23T03:51:13.368Z,24.83
2023-05-23T03:53:40.939Z,27.15
2023-05-23T03:56:07.702Z,29.40
2023-05-23T03:58:34.504Z,27.85
2023-05-23T04:01:07.009Z,25.08
2023-05-23T04:03:33.995Z,30.70
2023-05-23T04:06:02.385Z,27.23
2023-05-23T04:08:33.883Z,28.35
2023-05-23T04:11:01.957Z,27.83
2023-05-23T04:13:31.915Z,28.25
2023-05-23T04:16:01.501Z,27.77
2023-05-23T04:18:28.538Z,29.05
2023-05-23T04:20:55.215Z,27.10
2023-05-23T04:23:21.922Z,27.40
2023-05-23T04:25:52.575Z,28.25
2023-05-23T04:28:26.703Z,29.33
2023-05-23T04:30:54.380Z,30.58
2023-05-23T04:33:25.037Z,27.95
2023-05-23T04:35:51.938Z,27.85
2023-05-23T04:38:19.357Z,31.65
2023-05-23T04:40:46.094Z,30.75
2023-05-23T04:43:16.408Z,29.38
2023-05-23T04:45:56.056Z,28.58
2023-05-23T04:48:31.425Z,30.45
2023-05-23T04:51:02.192Z,30.73
2023-05-23T04:53:29.610Z,30.83
2023-05-23T04:55:57.716Z,32.30
2023-05-23T04:58:24.580Z,32.33
2023-05-23T05:00:57.875Z,31.35
2023-05-23T05:03:25.152Z,34.35
2023-05-23T05:05:52.388Z,34.65
2023-05-23T05:08:20.126Z,31.95
2023-05-23T05:10:47.004Z,34.40
2023-05-23T05:13:15.072Z,32.50
2023-05-23T05:15:46.369Z,36.40
2023-05-23T05:18:14.650Z,34.65
2023-05-23T05:20:41.767Z,35.40
2023-05-23T05:23:09.911Z,38.55
2023-05-23T05:25:38.277Z,33.97
2023-05-23T05:28:06.000Z,33.88
2023-05-23T05:30:36.536Z,34.75
2023-05-23T05:33:04.506Z,34.60
2023-05-23T05:35:35.347Z,35.42
2023-05-23T05:38:04.884Z,34.20
2023-05-23T05:40:32.791Z,35.13
2023-05-23T05:43:00.038Z,34.80
2023-05-23T05:45:27.717Z,32.53
2023-05-23T05:47:54.659Z,34.67
2023-05-23T05:50:23.621Z,33.80
2023-05-23T05:52:50.572Z,35.00
2023-05-23T05:55:17.497Z,33.92
2023-05-23T05:57:48.135Z,33.70
2023-05-23T06:00:18.963Z,33.03
2023-05-23T06:02:51.546Z,33.47
2023-05-23T06:05:41.702Z,33.45
2023-05-23T06:08:08.530Z,35.85
2023-05-23T06:10:37.985Z,35.75
2023-05-23T06:13:04.875Z,36.25
2023-05-23T06:15:32.899Z,34.50
2023-05-23T06:18:00.308Z,33.33
2023-05-23T06:20:27.092Z,34.22
2023-05-23T06:22:54.938Z,33.20
2023-05-23T06:25:21.853Z,35.83
2023-05-23T06:27:50.036Z,33.30
2023-05-23T06:30:16.888Z,34.85
2023-05-23T06:32:45.475Z,34.13
2023-05-23T06:35:12.388Z,32.33
2023-05-23T06:37:43.433Z,32.47
2023-05-23T06:40:10.994Z,33.80
2023-05-23T06:42:37.634Z,34.28
2023-05-23T06:45:11.969Z,32.33
2023-05-23T06:47:43.840Z,33.38
2023-05-23T06:50:11.009Z,32.97
2023-05-23T06:52:37.843Z,34.55
2023-05-23T06:55:05.482Z,35.40
2023-05-23T06:57:38.035Z,33.55
2023-05-23T07:00:07.425Z,34.55
2023-05-23T07:02:51.950Z,35.58
2023-05-23T07:05:22.167Z,34.58
2023-05-23T07:07:50.934Z,34.40
2023-05-23T07:10:19.805Z,38.10
2023-05-23T07:12:48.531Z,37.45
2023-05-23T07:15:16.607Z,34.95
2023-05-23T07:17:54.666Z,35.72
2023-05-23T07:20:21.700Z,35.53
2023-05-23T07:22:51.745Z,35.63
2023-05-23T07:25:19.272Z,35.35
2023-05-23T07:27:46.033Z,36.05
2023-05-23T07:30:12.944Z,37.00
2023-05-23T07:32:40.262Z,36.42
2023-05-23T07:35:09.069Z,36.97
2023-05-23T07:37:35.806Z,37.85
2023-05-23T07:40:02.691Z,36.28
2023-05-23T07:42:29.470Z,38.72
2023-05-23T07:44:56.150Z,36.03
2023-05-23T07:47:24.441Z,35.58
2023-05-23T07:49:52.354Z,35.45
2023-05-23T07:52:20.935Z,36.63
2023-05-23T07:54:48.375Z,36.40
2023-05-23T07:57:16.946Z,36.85
2023-05-23T07:59:44.442Z,37.58
2023-05-23T08:02:11.655Z,36.47
2023-05-23T08:04:40.453Z,37.38
2023-05-23T08:07:08.895Z,36.55
2023-05-23T08:09:46.085Z,35.50
2023-05-23T08:12:15.957Z,37.08
2023-05-23T08:14:51.730Z,34.88
2023-05-23T08:17:42.435Z,31.75
2023-05-23T08:20:10.278Z,34.03
2023-05-23T08:22:37.584Z,34.33
2023-05-23T08:25:06.048Z,33.85
2023-05-23T08:30:12.223Z,33.05
2023-05-23T08:32:39.074Z,34.45
2023-05-23T08:35:06.548Z,33.72
2023-05-23T08:37:33.259Z,33.85
2023-05-23T08:40:00.108Z,33.40
2023-05-23T08:42:43.487Z,30.95
2023-05-23T08:45:12.223Z,31.42
2023-05-23T08:47:42.451Z,30.83
2023-05-23T08:50:12.483Z,30.90
2023-05-23T08:52:45.123Z,29.70
2023-05-23T08:55:12.783Z,29.20
2023-05-23T08:57:43.785Z,28.73
2023-05-23T09:00:33.476Z,30.27
2023-05-23T09:03:00.682Z,29.33
2023-05-23T09:05:43.808Z,27.90
2023-05-23T09:08:10.775Z,26.45
2023-05-23T09:10:37.903Z,27.15
2023-05-23T09:13:06.317Z,25.42
2023-05-23T09:15:33.112Z,24.70
2023-05-23T09:18:02.206Z,24.60
2023-05-23T09:20:29.835Z,22.88
2023-05-23T09:23:02.913Z,21.35
2023-05-23T09:25:30.799Z,20.55
2023-05-23T09:28:00.098Z,20.70
2023-05-23T09:30:27.379Z,16.33
2023-05-23T09:33:05.730Z,17.42
2023-05-23T09:35:34.012Z,14.45
2023-05-23T09:38:01.030Z,15.40
2023-05-23T09:40:31.945Z,14.85
2023-05-23T09:43:04.960Z,13.73
2023-05-23T09:45:32.583Z,13.93
2023-05-23T09:48:01.720Z,12.77
2023-05-23T09:50:34.148Z,14.45
2023-05-23T09:53:02.408Z,13.20
2023-05-23T09:55:29.124Z,12.80
2023-05-23T09:57:58.659Z,13.35
2023-05-23T10:00:25.781Z,12.60
2023-05-23T10:03:03.474Z,12.73
2023-05-23T10:05:47.997Z,11.82
2023-05-23T10:08:18.316Z,12.23
2023-05-23T10:13:28.630Z,11.43
2023-05-23T10:16:03.184Z,11.02
2023-05-23T10:18:30.344Z,11.02
2023-05-23T10:20:58.116Z,11.57
2023-05-23T10:23:24.986Z,12.25
2023-05-23T10:25:52.499Z,10.70
2023-05-23T10:28:20.166Z,10.65
2023-05-23T10:30:47.850Z,10.75
2023-05-23T10:33:16.901Z,10.32
2023-05-23T10:35:58.647Z,10.82
2023-05-23T10:38:46.047Z,9.93
2023-05-23T10:41:24.027Z,10.25
2023-05-23T10:44:12.646Z,9.23
2023-05-23T10:46:55.351Z,8.95
2023-05-23T10:49:22.768Z,9.75
2023-05-23T10:51:51.416Z,9.50
2023-05-23T10:54:20.377Z,8.35
2023-05-23T10:56:47.145Z,8.35
2023-05-23T10:59:24.197Z,8.05
2023-05-23T11:01:52.416Z,8.18
2023-05-23T11:04:28.463Z,8.40
2023-05-23T11:06:56.809Z,9.05
2023-05-23T11:09:23.759Z,8.23
2023-05-23T11:12:05.356Z,9.20
2023-05-23T11:14:38.309Z,7.40
2023-05-23T11:17:18.626Z,7.88
2023-05-23T11:22:35.435Z,7.03
2023-05-23T11:25:07.243Z,6.82
2023-05-23T11:27:36.305Z,7.05
2023-05-23T11:30:10.045Z,7.15
2023-05-23T11:32:37.671Z,6.85
2023-05-23T11:35:06.325Z,6.43
2023-05-23T11:37:33.349Z,6.53
2023-05-23T11:40:02.058Z,6.43
2023-05-23T11:42:28.803Z,6.53
2023-05-23T11:44:55.540Z,6.75
2023-05-23T11:47:22.341Z,6.80
2023-05-23T11:49:49.064Z,5.95
2023-05-23T11:52:16.054Z,7.10
2023-05-23T11:54:43.511Z,5.75
2023-05-23T11:57:11.292Z,6.10
2023-05-23T11:59:38.657Z,6.47
2023-05-23T12:02:06.864Z,5.95
2023-05-23T12:04:35.769Z,5.75
2023-05-23T12:07:05.969Z,5.63
2023-05-23T12:09:33.027Z,5.05
2023-05-23T12:11:59.759Z,5.90
2023-05-23T12:14:29.097Z,6.43
2023-05-23T12:16:56.069Z,5.03
2023-05-23T12:19:22.950Z,5.43
2023-05-23T12:21:49.834Z,5.47
2023-05-23T12:24:21.315Z,5.38
2023-05-23T12:26:48.636Z,4.00
2023-05-23T12:29:16.370Z,5.45
2023-05-23T12:31:43.357Z,5.53
2023-05-23T12:34:11.587Z,5.07
2023-05-23T12:36:47.893Z,5.32
2023-05-23T12:39:16.224Z,5.43
2023-05-23T12:41:44.260Z,5.85
2023-05-23T12:44:11.599Z,6.05
2023-05-23T12:46:38.309Z,5.53
2023-05-23T12:49:05.855Z,5.90
2023-05-23T12:51:32.568Z,5.50
2023-05-23T12:53:59.592Z,5.55
2023-05-23T12:56:26.685Z,5.80
2023-05-23T12:58:57.140Z,6.05
2023-05-23T13:01:24.515Z,5.72
2023-05-23T13:03:51.249Z,5.35
2023-05-23T13:06:17.998Z,5.97
2023-05-23T13:08:44.722Z,5.35
2023-05-23T13:11:11.520Z,5.70
2023-05-23T13:13:38.809Z,5.20
2023-05-23T13:16:06.003Z,5.90
2023-05-23T13:18:32.646Z,5.25
2023-05-23T13:20:59.386Z,5.40
2023-05-23T13:23:26.437Z,5.15
2023-05-23T13:25:53.287Z,5.65
2023-05-23T13:28:20.084Z,5.88
2023-05-23T13:30:47.430Z,5.10
2023-05-23T13:33:14.520Z,5.38
2023-05-23T13:35:41.617Z,5.32
2023-05-23T13:38:08.672Z,6.47
2023-05-23T13:40:35.410Z,5.47
2023-05-23T13:43:02.057Z,6.28
2023-05-23T13:45:30.176Z,5.20
2023-05-23T13:47:56.869Z,5.28
2023-05-23T13:50:23.668Z,5.25
2023-05-23T13:52:50.410Z,5.97
2023-05-23T13:55:18.603Z,5.55
2023-05-23T13:57:45.989Z,5.53
2023-05-23T14:00:13.274Z,5.38
2023-05-23T14:02:40.030Z,5.53
2023-05-23T14:05:08.167Z,4.78
2023-05-23T14:07:34.937Z,5.18
2023-05-23T14:10:01.780Z,4.32
2023-05-23T14:12:28.446Z,4.82
2023-05-23T14:14:55.193Z,5.13
2023-05-23T14:17:21.879Z,4.53
2023-05-23T14:19:48.841Z,4.82
2023-05-23T14:22:15.533Z,5.15
2023-05-23T14:24:42.530Z,6.10
2023-05-23T14:27:11.094Z,4.40
2023-05-23T14:29:38.647Z,5.05
2023-05-23T14:32:05.727Z,4.63
2023-05-23T14:34:32.670Z,5.22
2023-05-23T14:36:59.422Z,5.00
2023-05-23T14:39:26.170Z,4.53
2023-05-23T14:41:52.997Z,4.38
2023-05-23T14:44:19.921Z,4.65
2023-05-23T14:46:50.251Z,4.53
2023-05-23T14:49:19.869Z,4.13
2023-05-23T14:51:50.357Z,4.50
2023-05-23T14:54:18.302Z,4.05
2023-05-23T14:56:45.087Z,3.78
2023-05-23T14:59:11.916Z,3.63
2023-05-23T15:01:40.382Z,4.20
2023-05-23T15:04:09.288Z,4.15
2023-05-23T15:06:36.346Z,3.72
2023-05-23T15:09:03.406Z,3.92
2023-05-23T15:11:30.174Z,3.60
2023-05-23T15:13:56.951Z,3.28
2023-05-23T15:16:23.758Z,3.03
2023-05-23T15:18:50.573Z,2.63
2023-05-23T15:21:17.348Z,2.50
2023-05-23T15:23:44.013Z,3.17
2023-05-23T15:26:10.809Z,2.33
2023-05-23T15:28:37.473Z,2.45
2023-05-23T15:31:04.558Z,2.65
2023-05-23T15:33:31.268Z,2.17
2023-05-23T15:35:59.434Z,1.95
2023-05-23T15:38:26.198Z,2.20
2023-05-23T15:40:54.734Z,1.40
2023-05-23T15:43:21.428Z,1.88
2023-05-23T15:45:49.869Z,2.20
2023-05-23T15:48:16.795Z,1.42
2023-05-23T15:50:44.146Z,1.60
2023-05-23T15:53:11.127Z,1.83
2023-05-23T15:55:41.272Z,1.80
2023-05-23T15:58:09.601Z,1.60
2023-05-23T16:00:36.450Z,1.55
2023-05-23T16:03:03.489Z,1.75
2023-05-23T16:05:30.310Z,1.70
2023-05-23T16:07:57.185Z,1.40
2023-05-23T16:10:24.784Z,2.40
2023-05-23T16:12:51.753Z,1.73
2023-05-23T16:15:18.786Z,1.70
2023-05-23T16:17:45.941Z,2.20
2023-05-23T16:20:12.860Z,2.03
2023-05-23T16:22:40.626Z,1.77
2023-05-23T16:25:09.254Z,2.28
2023-05-23T16:27:35.980Z,2.22
2023-05-23T16:30:02.929Z,1.60
2023-05-23T16:32:29.689Z,1.85
2023-05-23T16:34:56.425Z,1.50
2023-05-23T16:37:23.577Z,2.13
2023-05-23T16:39:50.450Z,1.90
2023-05-23T16:42:17.978Z,1.60
2023-05-23T16:44:45.295Z,2.00
2023-05-23T16:47:12.119Z,1.80
2023-05-23T16:49:38.954Z,1.63
2023-05-23T16:52:05.945Z,2.00
2023-05-23T16:54:32.696Z,1.73
2023-05-23T16:57:01.831Z,1.63
2023-05-23T16:59:29.878Z,1.93
2023-05-23T17:01:57.020Z,1.92
2023-05-23T17:04:24.002Z,1.75
2023-05-23T17:06:50.833Z,1.92
2023-05-23T17:09:18.287Z,1.92
2023-05-23T17:11:45.262Z,2.10
2023-05-23T17:14:12.814Z,2.67
2023-05-23T17:16:39.617Z,1.75
2023-05-23T17:19:07.557Z,1.58
2023-05-23T17:21:34.316Z,1.92
2023-05-23T17:24:01.077Z,2.10
2023-05-23T17:26:27.835Z,2.15
2023-05-23T17:28:54.526Z,2.03
2023-05-23T17:31:21.475Z,1.98
2023-05-23T17:33:48.183Z,1.90
2023-05-23T17:36:14.972Z,2.53
2023-05-23T17:38:41.977Z,2.10
2023-05-23T17:41:08.731Z,2.42
2023-05-23T17:43:35.355Z,2.75
2023-05-23T17:46:02.124Z,3.30
2023-05-23T17:48:45.839Z,3.33
2023-05-23T17:51:14.440Z,3.50
2023-05-23T17:53:41.639Z,2.83
2023-05-23T17:56:09.418Z,3.00
2023-05-23T17:58:37.525Z,2.88
2023-05-23T18:01:04.950Z,2.90
2023-05-23T18:03:32.180Z,3.13
2023-05-23T18:05:58.895Z,3.75
2023-05-23T18:08:25.749Z,3.53
2023-05-23T18:10:52.591Z,3.20
2023-05-23T18:13:19.320Z,3.47
2023-05-23T18:15:46.028Z,3.63
2023-05-23T18:18:12.888Z,3.53
2023-05-23T18:20:40.143Z,3.85
2023-05-23T18:23:07.482Z,3.17
2023-05-23T18:25:34.365Z,3.25
2023-05-23T18:28:01.977Z,3.72
2023-05-23T18:30:28.924Z,3.92
2023-05-23T18:32:56.220Z,4.20
2023-05-23T18:35:23.220Z,4.30
2023-05-23T18:37:49.988Z,4.63
2023-05-23T18:40:16.790Z,4.57
2023-05-23T18:42:43.609Z,4.05
2023-05-23T18:45:10.756Z,3.88
2023-05-23T18:47:37.746Z,4.35
2023-05-23T18:50:04.696Z,3.70
2023-05-23T18:52:33.542Z,3.55
2023-05-23T18:55:00.474Z,3.47
2023-05-23T18:57:27.233Z,3.17
2023-05-23T18:59:54.173Z,4.35
2023-05-23T19:02:20.923Z,3.90
2023-05-23T19:04:47.801Z,4.07
2023-05-23T19:07:14.646Z,3.67
2023-05-23T19:09:41.392Z,3.15
2023-05-23T19:12:08.173Z,3.50
2023-05-23T19:14:34.900Z,3.53
2023-05-23T19:17:05.613Z,4.40
2023-05-23T19:19:35.178Z,4.05
2023-05-23T19:22:01.922Z,3.97
2023-05-23T19:24:28.606Z,3.67
2023-05-23T19:26:56.251Z,3.95
2023-05-23T19:29:22.986Z,4.05
2023-05-23T19:31:49.867Z,4.22
2023-05-23T19:34:16.700Z,4.78
2023-05-23T19:36:44.160Z,4.90
2023-05-23T19:39:12.445Z,5.22
2023-05-23T19:41:40.697Z,4.25
2023-05-23T19:44:07.610Z,4.70
2023-05-23T19:46:34.407Z,4.25
2023-05-23T19:49:01.497Z,3.97
2023-05-23T19:51:29.068Z,3.90
2023-05-23T19:53:55.876Z,4.40
2023-05-23T19:56:22.950Z,4.35
2023-05-23T19:58:49.635Z,4.70
2023-05-23T20:01:16.461Z,4.78
2023-05-23T20:03:43.317Z,3.97
2023-05-23T20:06:10.176Z,4.15
2023-05-23T20:08:36.916Z,4.90
2023-05-23T20:11:03.636Z,4.93
2023-05-23T20:13:30.493Z,4.88
2023-05-23T20:15:57.305Z,4.47
2023-05-23T20:18:24.054Z,5.55
2023-05-23T20:20:50.917Z,4.95
2023-05-23T20:23:17.686Z,5.28
2023-05-23T20:25:44.387Z,4.93
2023-05-23T20:28:11.125Z,5.25
2023-05-23T20:30:37.720Z,5.35
2023-05-23T20:33:04.660Z,5.45
2023-05-23T20:35:31.322Z,5.00
2023-05-23T20:37:58.592Z,4.68
2023-05-23T20:40:26.957Z,5.93
2023-05-23T20:42:53.736Z,5.68
2023-05-23T20:45:20.489Z,5.70
2023-05-23T20:47:47.455Z,5.47
2023-05-23T20:50:14.958Z,5.22
2023-05-23T20:52:43.067Z,5.50
2023-05-23T20:55:10.852Z,5.68
2023-05-23T20:57:37.910Z,6.05
2023-05-23T21:00:12.705Z,6.38
2023-05-23T21:02:40.869Z,5.35
2023-05-23T21:05:08.702Z,6.13
2023-05-23T21:07:35.546Z,6.10
2023-05-23T21:10:03.307Z,6.07
2023-05-23T21:12:30.097Z,6.00
2023-05-23T21:14:57.106Z,5.43
2023-05-23T21:17:24.064Z,5.35
2023-05-23T21:19:51.149Z,5.40
2023-05-23T21:22:17.925Z,5.97
2023-05-23T21:24:44.555Z,5.70
2023-05-23T21:27:11.731Z,5.28
2023-05-23T21:29:38.402Z,5.50
2023-05-23T21:32:05.348Z,5.78
2023-05-23T21:34:32.060Z,4.85
2023-05-23T21:36:58.737Z,5.60
2023-05-23T21:39:28.780Z,5.93
2023-05-23T21:42:00.445Z,5.03
2023-05-23T21:44:27.105Z,5.10
2023-05-23T21:46:53.843Z,5.45
2023-05-23T21:49:20.618Z,4.95
2023-05-23T21:51:47.410Z,5.53
2023-05-23T21:54:14.132Z,5.22
2023-05-23T21:56:41.145Z,5.25
2023-05-23T21:59:08.213Z,5.43
2023-05-23T22:01:35.121Z,5.15
2023-05-23T22:04:02.015Z,5.05
2023-05-23T22:06:29.109Z,5.82
2023-05-23T22:08:55.931Z,5.93
2023-05-23T22:11:22.681Z,6.05
2023-05-23T22:13:49.485Z,5.72
2023-05-23T22:16:16.245Z,5.05
2023-05-23T22:18:51.602Z,4.85
2023-05-23T22:21:18.968Z,4.90
2023-05-23T22:23:45.999Z,4.80
2023-05-23T22:26:12.862Z,5.30
2023-05-23T22:28:39.701Z,5.25
2023-05-23T22:31:06.681Z,5.45
2023-05-23T22:33:33.432Z,5.85
2023-05-23T22:36:00.192Z,6.40
2023-05-23T22:38:26.892Z,6.68
2023-05-23T22:40:53.700Z,5.68
2023-05-23T22:43:21.878Z,5.30
2023-05-23T22:45:50.221Z,4.93
2023-05-23T22:48:19.299Z,5.10
2023-05-23T22:50:46.763Z,5.03
2023-05-23T22:53:16.663Z,5.57
2023-05-23T22:55:43.510Z,4.90
2023-05-23T22:58:10.477Z,5.00
2023-05-23T23:00:37.474Z,5.78
2023-05-23T23:03:04.559Z,5.38
2023-05-23T23:05:31.559Z,4.55
2023-05-23T23:07:58.244Z,5.35
2023-05-23T23:10:25.096Z,4.13
2023-05-23T23:12:51.764Z,5.22
2023-05-23T23:15:18.537Z,5.90
2023-05-23T23:17:45.242Z,5.22
2023-05-23T23:20:12.891Z,5.18
2023-05-23T23:22:39.911Z,5.75
2023-05-23T23:25:10.581Z,5.28
2023-05-23T23:30:06.613Z,6.07
2023-05-23T23:32:34.312Z,5.45
2023-05-23T23:35:01.508Z,5.00
2023-05-23T23:37:28.241Z,5.85
2023-05-23T23:39:55.016Z,6.13
2023-05-23T23:42:21.715Z,5.38
2023-05-23T23:44:48.588Z,4.72
2023-05-23T23:47:15.417Z,5.32
2023-05-23T23:49:42.353Z,5.88
2023-05-23T23:52:09.433Z,6.40
2023-05-23T23:54:36.174Z,6.30
2023-05-23T23:57:02.928Z,5.65
2023-05-23T23:59:29.670Z,7.10
